메인 페이지
METAR-TAF:

METAR-TAF

공항 :

Río Hato, 파나마

위도: 08-22-33N, 경도: 080-07-40W, 고도: 32m

METAR: 누락

시각: 10:05 (15:05 UTC)

예보

예보는 4 시간 5분 전, 11:00시(UTC)에 발표되었습니다.
예보 대상 시간: 03일 12시부터 04일 18시까지 (UTC)
북북서6kt
시정 10km 이상
고도 2000ft 상공 구름 조금
일시적
03일 19시부터 03일 23시까지 (UTC)
16kt

TAF: MPSM 031100Z 0312/0418 34006KT 9999 FEW020 TEMPO 0319/0323 36016KT

4,000개 이상의 공항 관측 자료 및 예보 (METAR 및 TAF 보고).

지도상에서 검색 가능한 기상관측소가 노란 점과 빨간 점으로 표시되어 있습니다.

기상관측소 명을 보려면 표시 위로 마우스를 이동하세요.

날씨 관측과 예보를 보려면 클릭하세요.

지도 변경 : 확대하려면 엑스 표시가 있는 녹색 버튼, 축소하려면 빼기 표시가 있는 녹색 버튼, 다음 페이지의 지도를 보려면 녹색 화살표를 클릭하세요.


METAR-TAF: